sensor_id;sensor_type;location;lat;lon;timestamp;P1;durP1;ratioP1;P2;durP2;ratioP2
5171;SDS011;2605;49.770;9.868;2022-12-20T00:00:22;61.63;;;35.33;;
5171;SDS011;2605;49.770;9.868;2022-12-20T00:02:47;52.97;;;34.60;;
5171;SDS011;2605;49.770;9.868;2022-12-20T00:05:13;54.03;;;33.87;;
5171;SDS011;2605;49.770;9.868;2022-12-20T00:07:39;52.20;;;31.97;;
5171;SDS011;2605;49.770;9.868;2022-12-20T00:10:04;61.87;;;33.60;;
5171;SDS011;2605;49.770;9.868;2022-12-20T00:12:30;52.60;;;32.73;;
5171;SDS011;2605;49.770;9.868;2022-12-20T00:14:56;50.53;;;32.20;;
5171;SDS011;2605;49.770;9.868;2022-12-20T00:17:21;52.37;;;30.83;;
5171;SDS011;2605;49.770;9.868;2022-12-20T00:19:47;53.10;;;32.10;;
5171;SDS011;2605;49.770;9.868;2022-12-20T00:22:13;54.73;;;33.00;;
5171;SDS011;2605;49.770;9.868;2022-12-20T00:24:38;45.20;;;27.37;;
5171;SDS011;2605;49.770;9.868;2022-12-20T00:27:04;46.07;;;30.17;;
5171;SDS011;2605;49.770;9.868;2022-12-20T00:29:29;53.67;;;29.73;;
5171;SDS011;2605;49.770;9.868;2022-12-20T00:31:55;53.23;;;30.57;;
5171;SDS011;2605;49.770;9.868;2022-12-20T00:34:20;44.40;;;29.47;;
5171;SDS011;2605;49.770;9.868;2022-12-20T00:36:46;47.97;;;30.13;;
5171;SDS011;2605;49.770;9.868;2022-12-20T00:39:11;50.07;;;30.23;;
5171;SDS011;2605;49.770;9.868;2022-12-20T00:41:37;53.50;;;30.83;;
5171;SDS011;2605;49.770;9.868;2022-12-20T00:44:03;47.53;;;31.00;;
5171;SDS011;2605;49.770;9.868;2022-12-20T00:46:28;53.50;;;35.17;;
5171;SDS011;2605;49.770;9.868;2022-12-20T00:48:55;50.83;;;31.60;;
5171;SDS011;2605;49.770;9.868;2022-12-20T00:51:22;54.80;;;31.40;;
5171;SDS011;2605;49.770;9.868;2022-12-20T00:53:50;44.80;;;29.90;;
5171;SDS011;2605;49.770;9.868;2022-12-20T00:56:16;52.17;;;30.57;;
5171;SDS011;2605;49.770;9.868;2022-12-20T00:58:42;51.07;;;31.03;;
5171;SDS011;2605;49.770;9.868;2022-12-20T01:01:41;51.37;;;31.90;;
5171;SDS011;2605;49.770;9.868;2022-12-20T01:04:00;45.43;;;30.37;;
5171;SDS011;2605;49.770;9.868;2022-12-20T01:06:26;42.90;;;29.67;;
5171;SDS011;2605;49.770;9.868;2022-12-20T01:08:53;50.83;;;30.07;;
5171;SDS011;2605;49.770;9.868;2022-12-20T01:11:20;47.73;;;30.33;;
5171;SDS011;2605;49.770;9.868;2022-12-20T01:13:48;45.13;;;31.57;;
5171;SDS011;2605;49.770;9.868;2022-12-20T01:16:17;48.33;;;29.17;;
5171;SDS011;2605;49.770;9.868;2022-12-20T01:18:45;50.23;;;30.00;;
5171;SDS011;2605;49.770;9.868;2022-12-20T01:21:12;48.93;;;30.40;;
5171;SDS011;2605;49.770;9.868;2022-12-20T01:23:40;42.77;;;28.53;;
5171;SDS011;2605;49.770;9.868;2022-12-20T01:26:06;48.33;;;29.33;;
5171;SDS011;2605;49.770;9.868;2022-12-20T01:28:36;44.43;;;28.20;;
5171;SDS011;2605;49.770;9.868;2022-12-20T01:31:06;48.37;;;29.10;;
5171;SDS011;2605;49.770;9.868;2022-12-20T01:33:35;44.53;;;27.77;;
5171;SDS011;2605;49.770;9.868;2022-12-20T01:36:02;50.50;;;31.20;;
5171;SDS011;2605;49.770;9.868;2022-12-20T01:38:30;49.20;;;30.17;;
5171;SDS011;2605;49.770;9.868;2022-12-20T01:40:56;47.30;;;29.90;;
5171;SDS011;2605;49.770;9.868;2022-12-20T01:43:22;44.17;;;29.00;;
5171;SDS011;2605;49.770;9.868;2022-12-20T01:45:49;43.60;;;27.47;;
5171;SDS011;2605;49.770;9.868;2022-12-20T01:48:16;42.57;;;28.97;;
5171;SDS011;2605;49.770;9.868;2022-12-20T01:50:45;44.67;;;29.40;;
5171;SDS011;2605;49.770;9.868;2022-12-20T01:53:12;45.57;;;28.13;;
5171;SDS011;2605;49.770;9.868;2022-12-20T01:55:39;42.40;;;30.30;;
5171;SDS011;2605;49.770;9.868;2022-12-20T01:58:06;38.70;;;26.70;;
5171;SDS011;2605;49.770;9.868;2022-12-20T02:00:33;50.97;;;30.20;;
5171;SDS011;2605;49.770;9.868;2022-12-20T02:03:02;44.50;;;30.90;;
5171;SDS011;2605;49.770;9.868;2022-12-20T02:05:36;41.13;;;26.80;;
5171;SDS011;2605;49.770;9.868;2022-12-20T02:08:03;43.87;;;29.30;;
5171;SDS011;2605;49.770;9.868;2022-12-20T02:16:09;51.20;;;30.20;;
5171;SDS011;2605;49.770;9.868;2022-12-20T02:18:46;46.43;;;30.10;;
5171;SDS011;2605;49.770;9.868;2022-12-20T02:32:37;44.30;;;27.83;;
5171;SDS011;2605;49.770;9.868;2022-12-20T02:35:11;40.80;;;27.53;;
5171;SDS011;2605;49.770;9.868;2022-12-20T02:37:48;44.37;;;28.53;;
5171;SDS011;2605;49.770;9.868;2022-12-20T02:40:20;35.17;;;24.13;;
5171;SDS011;2605;49.770;9.868;2022-12-20T02:42:50;47.40;;;28.20;;
5171;SDS011;2605;49.770;9.868;2022-12-20T02:45:19;40.73;;;28.50;;
5171;SDS011;2605;49.770;9.868;2022-12-20T02:50:37;42.73;;;27.67;;
5171;SDS011;2605;49.770;9.868;2022-12-20T02:53:07;48.13;;;31.13;;
5171;SDS011;2605;49.770;9.868;2022-12-20T02:55:45;45.20;;;28.73;;
5171;SDS011;2605;49.770;9.868;2022-12-20T02:58:38;52.47;;;32.77;;
5171;SDS011;2605;49.770;9.868;2022-12-20T03:01:11;52.57;;;32.57;;
5171;SDS011;2605;49.770;9.868;2022-12-20T03:03:48;51.20;;;30.73;;
5171;SDS011;2605;49.770;9.868;2022-12-20T03:06:19;41.90;;;28.77;;
5171;SDS011;2605;49.770;9.868;2022-12-20T03:08:45;41.80;;;29.50;;
5171;SDS011;2605;49.770;9.868;2022-12-20T03:11:13;43.07;;;28.80;;
5171;SDS011;2605;49.770;9.868;2022-12-20T03:13:39;38.20;;;26.13;;
5171;SDS011;2605;49.770;9.868;2022-12-20T03:16:05;43.97;;;27.97;;
5171;SDS011;2605;49.770;9.868;2022-12-20T03:18:31;44.97;;;28.37;;
5171;SDS011;2605;49.770;9.868;2022-12-20T03:20:56;44.57;;;28.70;;
5171;SDS011;2605;49.770;9.868;2022-12-20T03:23:22;49.37;;;28.90;;
5171;SDS011;2605;49.770;9.868;2022-12-20T03:25:48;41.80;;;28.23;;
5171;SDS011;2605;49.770;9.868;2022-12-20T03:28:13;42.90;;;27.83;;
5171;SDS011;2605;49.770;9.868;2022-12-20T03:30:39;44.07;;;30.23;;
5171;SDS011;2605;49.770;9.868;2022-12-20T03:33:04;50.40;;;29.77;;
5171;SDS011;2605;49.770;9.868;2022-12-20T03:35:30;41.30;;;28.30;;
5171;SDS011;2605;49.770;9.868;2022-12-20T03:37:55;42.13;;;29.00;;
5171;SDS011;2605;49.770;9.868;2022-12-20T03:40:21;42.03;;;28.20;;
5171;SDS011;2605;49.770;9.868;2022-12-20T03:42:47;52.03;;;30.13;;
5171;SDS011;2605;49.770;9.868;2022-12-20T03:45:12;47.07;;;30.57;;
5171;SDS011;2605;49.770;9.868;2022-12-20T03:47:38;49.23;;;29.63;;
5171;SDS011;2605;49.770;9.868;2022-12-20T03:50:05;43.60;;;28.50;;
5171;SDS011;2605;49.770;9.868;2022-12-20T03:52:31;43.40;;;28.93;;
5171;SDS011;2605;49.770;9.868;2022-12-20T03:54:56;44.60;;;28.77;;
5171;SDS011;2605;49.770;9.868;2022-12-20T03:57:22;49.37;;;30.90;;
5171;SDS011;2605;49.770;9.868;2022-12-20T03:59:48;46.40;;;29.50;;
5171;SDS011;2605;49.770;9.868;2022-12-20T04:02:13;45.03;;;28.83;;
5171;SDS011;2605;49.770;9.868;2022-12-20T04:04:39;45.57;;;30.43;;
5171;SDS011;2605;49.770;9.868;2022-12-20T04:07:05;47.23;;;28.60;;
5171;SDS011;2605;49.770;9.868;2022-12-20T04:09:31;45.97;;;28.57;;
5171;SDS011;2605;49.770;9.868;2022-12-20T04:11:56;44.20;;;30.30;;
5171;SDS011;2605;49.770;9.868;2022-12-20T04:14:24;43.40;;;30.40;;
5171;SDS011;2605;49.770;9.868;2022-12-20T04:16:50;52.67;;;29.93;;
5171;SDS011;2605;49.770;9.868;2022-12-20T04:19:15;44.77;;;30.43;;
5171;SDS011;2605;49.770;9.868;2022-12-20T04:21:41;41.73;;;28.73;;
5171;SDS011;2605;49.770;9.868;2022-12-20T04:24:06;45.07;;;31.73;;
5171;SDS011;2605;49.770;9.868;2022-12-20T04:26:33;41.97;;;26.80;;
5171;SDS011;2605;49.770;9.868;2022-12-20T04:28:58;47.53;;;29.70;;
5171;SDS011;2605;49.770;9.868;2022-12-20T04:31:24;45.33;;;28.80;;
5171;SDS011;2605;49.770;9.868;2022-12-20T04:33:49;43.63;;;29.63;;
5171;SDS011;2605;49.770;9.868;2022-12-20T04:36:15;46.87;;;29.90;;
5171;SDS011;2605;49.770;9.868;2022-12-20T04:38:41;45.80;;;29.60;;
5171;SDS011;2605;49.770;9.868;2022-12-20T04:41:06;48.27;;;29.53;;
5171;SDS011;2605;49.770;9.868;2022-12-20T04:43:32;51.67;;;32.20;;
5171;SDS011;2605;49.770;9.868;2022-12-20T04:45:58;43.43;;;28.13;;
5171;SDS011;2605;49.770;9.868;2022-12-20T04:48:24;42.00;;;28.73;;
5171;SDS011;2605;49.770;9.868;2022-12-20T04:50:51;54.27;;;32.33;;
5171;SDS011;2605;49.770;9.868;2022-12-20T04:53:17;46.50;;;30.20;;
5171;SDS011;2605;49.770;9.868;2022-12-20T04:56:02;57.90;;;29.50;;
5171;SDS011;2605;49.770;9.868;2022-12-20T04:58:28;49.77;;;32.67;;
5171;SDS011;2605;49.770;9.868;2022-12-20T05:00:54;52.93;;;31.90;;
5171;SDS011;2605;49.770;9.868;2022-12-20T05:03:20;48.23;;;31.87;;
5171;SDS011;2605;49.770;9.868;2022-12-20T05:05:47;46.40;;;30.97;;
5171;SDS011;2605;49.770;9.868;2022-12-20T05:08:13;55.43;;;32.57;;
5171;SDS011;2605;49.770;9.868;2022-12-20T05:10:39;52.93;;;32.50;;
5171;SDS011;2605;49.770;9.868;2022-12-20T05:13:05;55.97;;;33.77;;
5171;SDS011;2605;49.770;9.868;2022-12-20T05:15:30;53.67;;;33.77;;
5171;SDS011;2605;49.770;9.868;2022-12-20T05:17:56;52.23;;;32.90;;
5171;SDS011;2605;49.770;9.868;2022-12-20T05:20:27;56.03;;;32.87;;
5171;SDS011;2605;49.770;9.868;2022-12-20T05:22:54;49.97;;;32.60;;
5171;SDS011;2605;49.770;9.868;2022-12-20T05:25:52;63.40;;;34.83;;
5171;SDS011;2605;49.770;9.868;2022-12-20T05:28:36;55.53;;;32.90;;
5171;SDS011;2605;49.770;9.868;2022-12-20T05:31:02;53.10;;;34.07;;
5171;SDS011;2605;49.770;9.868;2022-12-20T05:33:27;56.23;;;35.63;;
5171;SDS011;2605;49.770;9.868;2022-12-20T05:35:53;54.53;;;33.73;;
5171;SDS011;2605;49.770;9.868;2022-12-20T05:38:19;58.10;;;31.53;;
5171;SDS011;2605;49.770;9.868;2022-12-20T05:40:46;51.07;;;34.37;;
5171;SDS011;2605;49.770;9.868;2022-12-20T05:43:13;53.80;;;32.37;;
5171;SDS011;2605;49.770;9.868;2022-12-20T05:45:39;49.17;;;33.20;;
5171;SDS011;2605;49.770;9.868;2022-12-20T05:48:08;46.17;;;30.03;;
5171;SDS011;2605;49.770;9.868;2022-12-20T05:50:37;53.50;;;32.57;;
5171;SDS011;2605;49.770;9.868;2022-12-20T05:53:02;49.23;;;32.50;;
5171;SDS011;2605;49.770;9.868;2022-12-20T05:55:28;52.77;;;33.10;;
5171;SDS011;2605;49.770;9.868;2022-12-20T05:57:54;52.77;;;32.40;;
5171;SDS011;2605;49.770;9.868;2022-12-20T06:00:20;47.43;;;33.57;;
5171;SDS011;2605;49.770;9.868;2022-12-20T06:02:47;55.07;;;32.47;;
5171;SDS011;2605;49.770;9.868;2022-12-20T06:05:12;49.83;;;30.30;;
5171;SDS011;2605;49.770;9.868;2022-12-20T06:07:38;50.37;;;29.83;;
5171;SDS011;2605;49.770;9.868;2022-12-20T06:10:04;47.10;;;28.87;;
5171;SDS011;2605;49.770;9.868;2022-12-20T06:12:31;48.80;;;31.50;;
5171;SDS011;2605;49.770;9.868;2022-12-20T06:14:57;46.03;;;30.27;;
5171;SDS011;2605;49.770;9.868;2022-12-20T06:17:22;47.43;;;32.70;;
5171;SDS011;2605;49.770;9.868;2022-12-20T06:19:48;53.47;;;34.37;;
5171;SDS011;2605;49.770;9.868;2022-12-20T06:22:13;53.27;;;32.70;;
5171;SDS011;2605;49.770;9.868;2022-12-20T06:24:39;57.53;;;34.30;;
5171;SDS011;2605;49.770;9.868;2022-12-20T06:27:05;49.50;;;32.97;;
5171;SDS011;2605;49.770;9.868;2022-12-20T06:29:31;57.83;;;34.10;;
5171;SDS011;2605;49.770;9.868;2022-12-20T06:32:01;46.93;;;32.13;;
5171;SDS011;2605;49.770;9.868;2022-12-20T06:34:29;61.07;;;34.10;;
5171;SDS011;2605;49.770;9.868;2022-12-20T06:36:55;43.53;;;30.30;;
5171;SDS011;2605;49.770;9.868;2022-12-20T06:39:20;50.40;;;31.80;;
5171;SDS011;2605;49.770;9.868;2022-12-20T06:41:46;52.50;;;31.60;;
5171;SDS011;2605;49.770;9.868;2022-12-20T06:44:11;59.50;;;34.87;;
5171;SDS011;2605;49.770;9.868;2022-12-20T06:46:37;48.73;;;31.97;;
5171;SDS011;2605;49.770;9.868;2022-12-20T06:49:02;48.43;;;30.20;;
5171;SDS011;2605;49.770;9.868;2022-12-20T06:51:28;52.13;;;29.73;;
5171;SDS011;2605;49.770;9.868;2022-12-20T06:53:53;49.90;;;30.37;;
5171;SDS011;2605;49.770;9.868;2022-12-20T06:56:19;48.10;;;32.30;;
5171;SDS011;2605;49.770;9.868;2022-12-20T06:58:45;50.20;;;32.10;;
5171;SDS011;2605;49.770;9.868;2022-12-20T07:01:11;52.67;;;31.63;;
5171;SDS011;2605;49.770;9.868;2022-12-20T07:03:36;46.40;;;29.53;;
5171;SDS011;2605;49.770;9.868;2022-12-20T07:06:02;50.00;;;29.97;;
5171;SDS011;2605;49.770;9.868;2022-12-20T07:08:28;46.23;;;29.97;;
5171;SDS011;2605;49.770;9.868;2022-12-20T07:10:53;42.77;;;28.23;;
5171;SDS011;2605;49.770;9.868;2022-12-20T07:13:20;43.40;;;27.97;;
5171;SDS011;2605;49.770;9.868;2022-12-20T07:15:45;41.67;;;29.57;;
5171;SDS011;2605;49.770;9.868;2022-12-20T07:18:11;46.50;;;29.23;;
5171;SDS011;2605;49.770;9.868;2022-12-20T07:20:40;43.67;;;28.13;;
5171;SDS011;2605;49.770;9.868;2022-12-20T07:23:05;43.67;;;28.67;;
5171;SDS011;2605;49.770;9.868;2022-12-20T07:25:31;48.83;;;29.53;;
5171;SDS011;2605;49.770;9.868;2022-12-20T07:27:56;40.70;;;27.40;;
5171;SDS011;2605;49.770;9.868;2022-12-20T07:30:22;42.37;;;27.43;;
5171;SDS011;2605;49.770;9.868;2022-12-20T07:32:47;44.17;;;27.23;;
5171;SDS011;2605;49.770;9.868;2022-12-20T07:35:13;39.93;;;26.83;;
5171;SDS011;2605;49.770;9.868;2022-12-20T07:37:39;44.93;;;29.17;;
5171;SDS011;2605;49.770;9.868;2022-12-20T07:40:05;46.93;;;27.87;;
5171;SDS011;2605;49.770;9.868;2022-12-20T07:42:31;39.70;;;27.07;;
5171;SDS011;2605;49.770;9.868;2022-12-20T07:44:57;39.70;;;27.33;;
5171;SDS011;2605;49.770;9.868;2022-12-20T07:47:22;43.70;;;28.30;;
5171;SDS011;2605;49.770;9.868;2022-12-20T07:49:48;45.10;;;28.67;;
5171;SDS011;2605;49.770;9.868;2022-12-20T07:52:13;42.43;;;28.40;;
5171;SDS011;2605;49.770;9.868;2022-12-20T07:54:44;42.37;;;26.30;;
5171;SDS011;2605;49.770;9.868;2022-12-20T07:57:15;39.63;;;26.80;;
5171;SDS011;2605;49.770;9.868;2022-12-20T07:59:46;46.23;;;27.63;;
5171;SDS011;2605;49.770;9.868;2022-12-20T08:02:21;42.17;;;27.27;;
5171;SDS011;2605;49.770;9.868;2022-12-20T08:04:52;44.67;;;28.23;;
5171;SDS011;2605;49.770;9.868;2022-12-20T08:07:19;49.43;;;28.00;;
5171;SDS011;2605;49.770;9.868;2022-12-20T08:09:45;39.83;;;27.40;;
5171;SDS011;2605;49.770;9.868;2022-12-20T08:12:11;42.17;;;27.20;;
5171;SDS011;2605;49.770;9.868;2022-12-20T08:14:40;38.83;;;27.10;;
5171;SDS011;2605;49.770;9.868;2022-12-20T08:17:06;42.83;;;28.27;;
5171;SDS011;2605;49.770;9.868;2022-12-20T08:19:31;41.23;;;27.60;;
5171;SDS011;2605;49.770;9.868;2022-12-20T08:21:57;41.87;;;25.90;;
5171;SDS011;2605;49.770;9.868;2022-12-20T08:24:23;42.50;;;28.27;;
5171;SDS011;2605;49.770;9.868;2022-12-20T08:26:48;42.70;;;28.30;;
5171;SDS011;2605;49.770;9.868;2022-12-20T08:29:14;38.03;;;27.03;;
5171;SDS011;2605;49.770;9.868;2022-12-20T08:31:40;45.77;;;29.80;;
5171;SDS011;2605;49.770;9.868;2022-12-20T08:34:08;43.83;;;27.83;;
5171;SDS011;2605;49.770;9.868;2022-12-20T08:36:35;43.73;;;29.33;;
5171;SDS011;2605;49.770;9.868;2022-12-20T08:39:01;43.70;;;28.37;;
5171;SDS011;2605;49.770;9.868;2022-12-20T08:41:28;38.43;;;27.97;;
5171;SDS011;2605;49.770;9.868;2022-12-20T08:43:53;38.70;;;27.83;;
5171;SDS011;2605;49.770;9.868;2022-12-20T08:46:19;41.07;;;27.70;;
5171;SDS011;2605;49.770;9.868;2022-12-20T08:48:44;39.50;;;27.80;;
5171;SDS011;2605;49.770;9.868;2022-12-20T08:51:10;44.57;;;29.33;;
5171;SDS011;2605;49.770;9.868;2022-12-20T08:53:36;44.27;;;28.40;;
5171;SDS011;2605;49.770;9.868;2022-12-20T08:56:07;38.73;;;26.43;;
5171;SDS011;2605;49.770;9.868;2022-12-20T08:58:40;37.53;;;26.43;;
5171;SDS011;2605;49.770;9.868;2022-12-20T09:01:07;37.70;;;24.93;;
5171;SDS011;2605;49.770;9.868;2022-12-20T09:03:39;40.70;;;27.10;;
5171;SDS011;2605;49.770;9.868;2022-12-20T09:06:05;42.07;;;27.27;;
5171;SDS011;2605;49.770;9.868;2022-12-20T09:08:39;44.73;;;27.00;;
5171;SDS011;2605;49.770;9.868;2022-12-20T09:11:09;38.50;;;25.13;;
5171;SDS011;2605;49.770;9.868;2022-12-20T09:13:40;40.73;;;28.13;;
5171;SDS011;2605;49.770;9.868;2022-12-20T09:16:07;42.87;;;26.30;;
5171;SDS011;2605;49.770;9.868;2022-12-20T09:18:33;39.73;;;27.00;;
5171;SDS011;2605;49.770;9.868;2022-12-20T09:21:00;36.60;;;25.87;;
5171;SDS011;2605;49.770;9.868;2022-12-20T09:23:27;34.73;;;25.33;;
5171;SDS011;2605;49.770;9.868;2022-12-20T09:25:52;34.10;;;24.60;;
5171;SDS011;2605;49.770;9.868;2022-12-20T09:28:18;37.87;;;26.33;;
5171;SDS011;2605;49.770;9.868;2022-12-20T09:30:44;38.77;;;24.87;;
5171;SDS011;2605;49.770;9.868;2022-12-20T09:33:09;34.13;;;25.70;;
5171;SDS011;2605;49.770;9.868;2022-12-20T09:35:35;32.90;;;23.90;;
5171;SDS011;2605;49.770;9.868;2022-12-20T09:38:01;36.97;;;24.70;;
5171;SDS011;2605;49.770;9.868;2022-12-20T09:40:28;40.40;;;29.63;;
5171;SDS011;2605;49.770;9.868;2022-12-20T09:42:56;39.97;;;27.97;;
5171;SDS011;2605;49.770;9.868;2022-12-20T09:45:28;40.73;;;28.37;;
5171;SDS011;2605;49.770;9.868;2022-12-20T09:47:59;33.73;;;24.50;;
5171;SDS011;2605;49.770;9.868;2022-12-20T09:51:28;31.77;;;26.00;;
5171;SDS011;2605;49.770;9.868;2022-12-20T09:53:27;36.90;;;25.60;;
5171;SDS011;2605;49.770;9.868;2022-12-20T09:56:15;38.10;;;26.20;;
5171;SDS011;2605;49.770;9.868;2022-12-20T10:01:27;29.73;;;23.03;;
5171;SDS011;2605;49.770;9.868;2022-12-20T10:03:55;30.93;;;24.00;;
5171;SDS011;2605;49.770;9.868;2022-12-20T10:06:32;36.23;;;24.90;;
5171;SDS011;2605;49.770;9.868;2022-12-20T10:09:26;30.07;;;23.43;;
5171;SDS011;2605;49.770;9.868;2022-12-20T10:12:11;38.43;;;25.47;;
5171;SDS011;2605;49.770;9.868;2022-12-20T10:18:02;33.00;;;24.17;;
5171;SDS011;2605;49.770;9.868;2022-12-20T10:25:52;28.43;;;22.23;;
5171;SDS011;2605;49.770;9.868;2022-12-20T10:28:19;33.87;;;24.00;;
5171;SDS011;2605;49.770;9.868;2022-12-20T10:30:50;33.00;;;25.00;;
5171;SDS011;2605;49.770;9.868;2022-12-20T10:33:19;32.87;;;24.73;;
5171;SDS011;2605;49.770;9.868;2022-12-20T10:35:50;36.20;;;24.00;;
5171;SDS011;2605;49.770;9.868;2022-12-20T10:38:16;35.73;;;25.00;;
5171;SDS011;2605;49.770;9.868;2022-12-20T10:40:46;32.23;;;24.83;;
5171;SDS011;2605;49.770;9.868;2022-12-20T10:43:23;36.60;;;24.00;;
5171;SDS011;2605;49.770;9.868;2022-12-20T10:46:05;39.73;;;25.07;;
5171;SDS011;2605;49.770;9.868;2022-12-20T10:48:33;28.87;;;22.47;;
5171;SDS011;2605;49.770;9.868;2022-12-20T10:51:12;34.50;;;23.93;;
5171;SDS011;2605;49.770;9.868;2022-12-20T10:53:54;33.10;;;22.97;;
5171;SDS011;2605;49.770;9.868;2022-12-20T10:56:23;33.43;;;23.47;;
5171;SDS011;2605;49.770;9.868;2022-12-20T11:01:21;36.90;;;25.60;;
5171;SDS011;2605;49.770;9.868;2022-12-20T11:03:53;33.83;;;24.80;;
5171;SDS011;2605;49.770;9.868;2022-12-20T11:06:21;33.27;;;25.10;;
5171;SDS011;2605;49.770;9.868;2022-12-20T11:08:52;35.83;;;23.87;;
5171;SDS011;2605;49.770;9.868;2022-12-20T11:11:22;39.33;;;25.77;;
5171;SDS011;2605;49.770;9.868;2022-12-20T11:13:49;38.30;;;27.30;;
5171;SDS011;2605;49.770;9.868;2022-12-20T11:16:32;42.80;;;27.53;;
5171;SDS011;2605;49.770;9.868;2022-12-20T11:19:09;36.67;;;26.73;;
5171;SDS011;2605;49.770;9.868;2022-12-20T11:21:52;34.93;;;25.77;;
5171;SDS011;2605;49.770;9.868;2022-12-20T11:24:39;34.47;;;24.47;;
5171;SDS011;2605;49.770;9.868;2022-12-20T11:27:56;37.63;;;26.90;;
5171;SDS011;2605;49.770;9.868;2022-12-20T11:32:51;32.43;;;24.70;;
5171;SDS011;2605;49.770;9.868;2022-12-20T11:38:02;35.70;;;26.80;;
5171;SDS011;2605;49.770;9.868;2022-12-20T11:40:50;34.30;;;26.10;;
5171;SDS011;2605;49.770;9.868;2022-12-20T11:43:51;38.37;;;27.20;;
5171;SDS011;2605;49.770;9.868;2022-12-20T11:51:47;25.30;;;21.10;;
5171;SDS011;2605;49.770;9.868;2022-12-20T11:54:18;33.17;;;24.20;;
5171;SDS011;2605;49.770;9.868;2022-12-20T11:57:00;32.23;;;24.93;;
5171;SDS011;2605;49.770;9.868;2022-12-20T11:59:34;34.60;;;25.30;;
5171;SDS011;2605;49.770;9.868;2022-12-20T12:02:13;37.00;;;26.33;;
5171;SDS011;2605;49.770;9.868;2022-12-20T12:04:57;34.57;;;24.47;;
5171;SDS011;2605;49.770;9.868;2022-12-20T12:07:30;26.80;;;21.83;;
5171;SDS011;2605;49.770;9.868;2022-12-20T12:10:02;31.30;;;22.53;;
5171;SDS011;2605;49.770;9.868;2022-12-20T12:12:51;34.70;;;23.83;;
5171;SDS011;2605;49.770;9.868;2022-12-20T12:15:39;28.70;;;23.30;;
5171;SDS011;2605;49.770;9.868;2022-12-20T12:18:20;33.07;;;26.93;;
5171;SDS011;2605;49.770;9.868;2022-12-20T12:20:54;34.97;;;27.47;;
5171;SDS011;2605;49.770;9.868;2022-12-20T12:23:29;32.90;;;25.37;;
5171;SDS011;2605;49.770;9.868;2022-12-20T12:26:23;36.23;;;26.00;;
5171;SDS011;2605;49.770;9.868;2022-12-20T12:28:54;27.93;;;22.77;;
5171;SDS011;2605;49.770;9.868;2022-12-20T12:31:24;35.17;;;23.77;;
5171;SDS011;2605;49.770;9.868;2022-12-20T12:37:03;39.40;;;27.53;;
5171;SDS011;2605;49.770;9.868;2022-12-20T12:45:27;39.40;;;27.70;;
5171;SDS011;2605;49.770;9.868;2022-12-20T12:48:21;42.13;;;28.07;;
5171;SDS011;2605;49.770;9.868;2022-12-20T12:50:49;36.50;;;25.87;;
5171;SDS011;2605;49.770;9.868;2022-12-20T12:53:20;37.87;;;27.47;;
5171;SDS011;2605;49.770;9.868;2022-12-20T12:55:56;36.77;;;26.80;;
5171;SDS011;2605;49.770;9.868;2022-12-20T13:00:49;36.87;;;26.40;;
5171;SDS011;2605;49.770;9.868;2022-12-20T13:11:32;36.80;;;27.00;;
5171;SDS011;2605;49.770;9.868;2022-12-20T13:16:41;42.53;;;29.20;;
5171;SDS011;2605;49.770;9.868;2022-12-20T13:19:14;38.00;;;26.60;;
5171;SDS011;2605;49.770;9.868;2022-12-20T13:21:52;32.93;;;27.07;;
5171;SDS011;2605;49.770;9.868;2022-12-20T13:24:29;37.70;;;28.03;;
5171;SDS011;2605;49.770;9.868;2022-12-20T13:27:15;39.23;;;28.00;;
5171;SDS011;2605;49.770;9.868;2022-12-20T13:40:24;39.93;;;27.83;;
5171;SDS011;2605;49.770;9.868;2022-12-20T13:43:02;41.20;;;29.40;;
5171;SDS011;2605;49.770;9.868;2022-12-20T13:45:31;41.00;;;28.23;;
5171;SDS011;2605;49.770;9.868;2022-12-20T13:48:01;43.40;;;30.40;;
5171;SDS011;2605;49.770;9.868;2022-12-20T13:50:35;43.57;;;30.90;;
5171;SDS011;2605;49.770;9.868;2022-12-20T13:53:04;35.50;;;28.90;;
5171;SDS011;2605;49.770;9.868;2022-12-20T13:55:37;39.70;;;29.03;;
5171;SDS011;2605;49.770;9.868;2022-12-20T13:58:10;42.93;;;30.00;;
5171;SDS011;2605;49.770;9.868;2022-12-20T14:00:38;40.23;;;27.10;;
5171;SDS011;2605;49.770;9.868;2022-12-20T14:03:04;37.57;;;28.63;;
5171;SDS011;2605;49.770;9.868;2022-12-20T14:05:41;43.37;;;30.90;;
5171;SDS011;2605;49.770;9.868;2022-12-20T14:08:08;41.03;;;28.23;;
5171;SDS011;2605;49.770;9.868;2022-12-20T14:10:39;40.23;;;30.23;;
5171;SDS011;2605;49.770;9.868;2022-12-20T14:13:23;37.20;;;27.80;;
5171;SDS011;2605;49.770;9.868;2022-12-20T14:15:50;40.50;;;29.50;;
5171;SDS011;2605;49.770;9.868;2022-12-20T14:18:24;41.93;;;29.00;;
5171;SDS011;2605;49.770;9.868;2022-12-20T14:20:50;43.57;;;27.27;;
5171;SDS011;2605;49.770;9.868;2022-12-20T14:23:20;38.40;;;27.33;;
5171;SDS011;2605;49.770;9.868;2022-12-20T14:25:50;39.37;;;28.27;;
5171;SDS011;2605;49.770;9.868;2022-12-20T14:30:55;41.13;;;31.90;;
5171;SDS011;2605;49.770;9.868;2022-12-20T14:36:08;44.90;;;29.47;;
5171;SDS011;2605;49.770;9.868;2022-12-20T14:38:40;43.40;;;29.87;;
5171;SDS011;2605;49.770;9.868;2022-12-20T14:46:45;49.43;;;32.33;;
5171;SDS011;2605;49.770;9.868;2022-12-20T14:51:45;51.63;;;30.73;;
5171;SDS011;2605;49.770;9.868;2022-12-20T14:54:18;45.37;;;30.00;;
5171;SDS011;2605;49.770;9.868;2022-12-20T14:56:47;46.60;;;31.70;;
5171;SDS011;2605;49.770;9.868;2022-12-20T14:59:16;41.67;;;31.67;;
5171;SDS011;2605;49.770;9.868;2022-12-20T15:01:48;41.40;;;29.80;;
5171;SDS011;2605;49.770;9.868;2022-12-20T15:04:29;48.40;;;30.63;;
5171;SDS011;2605;49.770;9.868;2022-12-20T15:06:57;42.97;;;30.70;;
5171;SDS011;2605;49.770;9.868;2022-12-20T15:09:23;45.13;;;31.87;;
5171;SDS011;2605;49.770;9.868;2022-12-20T15:11:49;41.60;;;29.47;;
5171;SDS011;2605;49.770;9.868;2022-12-20T15:14:32;34.40;;;27.33;;
5171;SDS011;2605;49.770;9.868;2022-12-20T15:17:01;44.03;;;29.80;;
5171;SDS011;2605;49.770;9.868;2022-12-20T15:19:28;39.53;;;27.43;;
5171;SDS011;2605;49.770;9.868;2022-12-20T15:21:55;38.23;;;27.90;;
5171;SDS011;2605;49.770;9.868;2022-12-20T15:24:22;38.93;;;29.10;;
5171;SDS011;2605;49.770;9.868;2022-12-20T15:26:50;37.83;;;27.97;;
5171;SDS011;2605;49.770;9.868;2022-12-20T15:29:17;40.73;;;28.80;;
5171;SDS011;2605;49.770;9.868;2022-12-20T15:31:44;38.20;;;28.20;;
5171;SDS011;2605;49.770;9.868;2022-12-20T15:34:18;43.60;;;30.03;;
5171;SDS011;2605;49.770;9.868;2022-12-20T15:37:01;45.00;;;31.00;;
5171;SDS011;2605;49.770;9.868;2022-12-20T15:39:28;43.67;;;32.33;;
5171;SDS011;2605;49.770;9.868;2022-12-20T15:41:54;38.50;;;30.70;;
5171;SDS011;2605;49.770;9.868;2022-12-20T15:44:21;48.60;;;32.60;;
5171;SDS011;2605;49.770;9.868;2022-12-20T15:46:49;43.87;;;30.97;;
5171;SDS011;2605;49.770;9.868;2022-12-20T15:49:16;47.47;;;31.50;;
5171;SDS011;2605;49.770;9.868;2022-12-20T15:51:50;53.50;;;33.07;;
5171;SDS011;2605;49.770;9.868;2022-12-20T15:54:27;43.27;;;30.80;;
5171;SDS011;2605;49.770;9.868;2022-12-20T15:56:58;46.47;;;31.90;;
5171;SDS011;2605;49.770;9.868;2022-12-20T15:59:27;41.07;;;29.67;;
5171;SDS011;2605;49.770;9.868;2022-12-20T16:01:52;44.80;;;31.70;;
5171;SDS011;2605;49.770;9.868;2022-12-20T16:04:18;41.37;;;30.50;;
5171;SDS011;2605;49.770;9.868;2022-12-20T16:06:46;40.90;;;31.10;;
5171;SDS011;2605;49.770;9.868;2022-12-20T16:09:13;47.10;;;33.57;;
5171;SDS011;2605;49.770;9.868;2022-12-20T16:11:39;44.50;;;30.20;;
5171;SDS011;2605;49.770;9.868;2022-12-20T16:14:04;47.67;;;31.53;;
5171;SDS011;2605;49.770;9.868;2022-12-20T16:16:31;44.30;;;30.20;;
5171;SDS011;2605;49.770;9.868;2022-12-20T16:18:58;47.90;;;30.97;;
5171;SDS011;2605;49.770;9.868;2022-12-20T16:21:26;43.63;;;30.40;;
5171;SDS011;2605;49.770;9.868;2022-12-20T16:23:55;48.30;;;32.73;;
5171;SDS011;2605;49.770;9.868;2022-12-20T16:26:21;45.37;;;32.60;;
5171;SDS011;2605;49.770;9.868;2022-12-20T16:28:49;49.63;;;33.67;;
5171;SDS011;2605;49.770;9.868;2022-12-20T16:33:46;48.53;;;34.00;;